French Lick, IN

6:38 PM EST on February 26, 2015 (GMT -0500)
Rusk Indiana | Change Station
CLOSE
Current Station
Personal Weather Station
Location: Shoals, IN
Elevation: 669 ft
Nearby Weather Stations

Elev 669 ft 38.55 °N, 86.74 °W | Updated 1 minute ago

Overcast
Overcast
23.5 °F
Feels Like 24 °F
N
2.7
Wind Variable Wind from NW
Gusts 5.3 mph

Today
High -- | Low -- °F
--% Chance of Precip.
Yesterday
High -- | Low -- °F
Precip. -- in
7:23 AM 6:36 PM
Waxing Gibbous, 63% visible
Pressure 30.25 in
Visibility 10.0 miles
Clouds Clear
Windchill 24 °F
Dew Point 14 °F
Humidity 67%
Rainfall 0.00 in
Snow Depth Not available.
UV 0 out of 12
Pollen 1.20 out of 12
Air Quality Not available.
Flu Activity Not available.
METAR KHNB 262315Z AUTO 34011G15KT 10SM CLR M04/M11 A3025 RMK AO1

More Conditions Fewer Conditions

Pressure 30.25 in
Visibility 10.0 miles
Clouds Clear
Windchill 24 °F
Dew Point 14 °F
Humidity 67%
Rainfall 0.00 in
Snow Depth Not available.
UV 0 out of 12
Pollen 1.20 out of 12
Air Quality Not available.
Flu Activity Not available.
METAR KHNB 262315Z AUTO 34011G15KT 10SM CLR M04/M11 A3025 RMK AO1

More Conditions Fewer Conditions

10-Day Weather Forecast

Almanac

Astronomy

Feb. 26, 2015 Rise Set
Actual Time
Civil Twilight
Nautical Twilight
Astronomical Twilight
Moon
Length of Visible Light
Length of Day
Tomorrow will be .
, % of the Moon is Illuminated

Today's Extremes

State Highs State Lows

Community

WunderPhotos

Upload Photos

1,800,528 photos uploaded!

WunderBlogs® & News

Nearby

Air Quality

  Air Quality AQ Index Pollutant
Not available.

Snow Depth

Station Depth Elevation

Earthquake Activity

City Distance Mag. Time & Date
Minimum magnitude displayed is 2.5.

Coastal Water Temperatures

Place Temperature

Nearby Weather Stations